createdAt,value
2018-10-09T00:01:07.413Z,99.90
2018-10-09T00:03:41.646Z,99.90
2018-10-09T00:06:10.171Z,99.90
2018-10-09T00:08:39.056Z,99.90
2018-10-09T00:11:07.871Z,99.90
2018-10-09T00:13:36.463Z,99.90
2018-10-09T00:16:05.112Z,99.90
2018-10-09T00:18:33.634Z,99.90
2018-10-09T00:21:03.520Z,99.90
2018-10-09T00:23:32.031Z,99.90
2018-10-09T00:26:00.697Z,99.90
2018-10-09T00:28:29.158Z,99.90
2018-10-09T00:30:57.723Z,99.90
2018-10-09T00:33:26.243Z,99.90
2018-10-09T00:35:54.799Z,99.90
2018-10-09T00:38:23.318Z,99.90
2018-10-09T00:40:51.883Z,99.90
2018-10-09T00:43:20.463Z,99.90
2018-10-09T00:45:49.093Z,99.90
2018-10-09T00:48:17.647Z,99.90
2018-10-09T00:50:46.800Z,99.90
2018-10-09T00:53:15.319Z,99.90
2018-10-09T00:55:43.899Z,99.90
2018-10-09T00:58:12.423Z,99.90
2018-10-09T01:00:41.332Z,99.90
2018-10-09T01:03:09.851Z,99.90
2018-10-09T01:05:39.335Z,99.90
2018-10-09T01:08:07.860Z,99.90
2018-10-09T01:10:36.425Z,99.90
2018-10-09T01:13:04.964Z,99.90
2018-10-09T01:15:34.640Z,99.90
2018-10-09T01:18:03.194Z,99.90
2018-10-09T01:20:33.530Z,99.90
2018-10-09T01:23:03.803Z,99.90
2018-10-09T01:25:32.523Z,99.90
2018-10-09T01:28:02.553Z,99.90
2018-10-09T01:30:31.583Z,99.90
2018-10-09T01:33:00.502Z,99.90
2018-10-09T01:35:29.027Z,99.90
2018-10-09T01:37:57.590Z,99.90
2018-10-09T01:40:26.135Z,99.90
2018-10-09T01:42:54.760Z,99.90
2018-10-09T01:45:23.353Z,99.90
2018-10-09T01:47:51.894Z,99.90
2018-10-09T01:50:20.503Z,99.90
2018-10-09T01:52:49.122Z,99.90
2018-10-09T01:55:17.691Z,99.90
2018-10-09T01:57:46.334Z,99.90
2018-10-09T02:00:15.328Z,99.90
2018-10-09T02:02:43.907Z,99.90
2018-10-09T02:05:12.458Z,99.90
2018-10-09T02:07:41.065Z,99.90
2018-10-09T02:10:09.687Z,99.90
2018-10-09T02:12:38.243Z,99.90
2018-10-09T02:15:06.949Z,99.90
2018-10-09T02:17:35.511Z,99.90
2018-10-09T02:20:06.435Z,99.90
2018-10-09T02:22:35.014Z,99.90
2018-10-09T02:25:03.592Z,99.90
2018-10-09T02:27:32.111Z,99.90
2018-10-09T02:30:00.689Z,99.90
2018-10-09T02:32:29.233Z,99.90
2018-10-09T02:34:57.822Z,99.90
2018-10-09T02:37:26.352Z,99.90
2018-10-09T02:39:54.911Z,99.90
2018-10-09T02:42:23.429Z,99.90
2018-10-09T02:44:52.094Z,99.90
2018-10-09T02:47:20.623Z,99.90
2018-10-09T02:49:49.202Z,99.90
2018-10-09T02:52:17.767Z,99.90
2018-10-09T02:54:46.331Z,99.90
2018-10-09T02:57:14.867Z,99.90
2018-10-09T02:59:43.442Z,99.90
2018-10-09T03:02:11.962Z,99.90
2018-10-09T03:04:40.682Z,99.90
2018-10-09T03:07:09.188Z,99.90
2018-10-09T03:09:37.719Z,99.90
2018-10-09T03:12:06.287Z,99.90
2018-10-09T03:14:34.824Z,99.90
2018-10-09T03:19:37.528Z,99.90
2018-10-09T03:22:06.111Z,99.90
2018-10-09T03:24:34.648Z,99.90
2018-10-09T03:27:05.011Z,99.90
2018-10-09T03:29:33.545Z,99.90
2018-10-09T03:32:02.385Z,99.90
2018-10-09T03:34:30.907Z,99.90
2018-10-09T03:36:59.466Z,99.90
2018-10-09T03:39:28.005Z,99.90
2018-10-09T03:41:56.595Z,99.90
2018-10-09T03:44:25.099Z,99.90
2018-10-09T03:46:53.654Z,99.90
2018-10-09T03:49:22.170Z,99.90
2018-10-09T03:51:50.732Z,99.90
2018-10-09T03:54:19.255Z,99.90
2018-10-09T03:56:47.833Z,99.90
2018-10-09T03:59:16.380Z,99.90
2018-10-09T04:01:44.966Z,99.90
2018-10-09T04:04:13.541Z,99.90
2018-10-09T04:06:42.264Z,99.90
2018-10-09T04:09:12.911Z,99.90
2018-10-09T04:11:41.391Z,99.90
2018-10-09T04:14:09.976Z,99.90
2018-10-09T04:16:38.490Z,99.90
2018-10-09T04:19:07.081Z,99.90
2018-10-09T04:21:35.680Z,99.90
2018-10-09T04:24:05.406Z,99.90
2018-10-09T04:26:33.955Z,99.90
2018-10-09T04:29:02.545Z,99.90
2018-10-09T04:31:31.044Z,99.90
2018-10-09T04:33:59.562Z,99.90
2018-10-09T04:36:28.058Z,99.90
2018-10-09T04:38:56.612Z,99.90
2018-10-09T04:41:25.120Z,99.90
2018-10-09T04:43:53.690Z,99.90
2018-10-09T04:46:22.182Z,99.90
2018-10-09T04:48:50.709Z,99.90
2018-10-09T04:51:19.240Z,99.90
2018-10-09T04:53:47.775Z,99.90
2018-10-09T04:56:16.326Z,99.90
2018-10-09T04:58:44.897Z,99.90
2018-10-09T05:01:13.396Z,99.90
2018-10-09T05:03:41.890Z,99.90
2018-10-09T05:06:10.464Z,99.90
2018-10-09T05:08:38.986Z,99.90
2018-10-09T05:11:07.632Z,99.90
2018-10-09T05:13:36.168Z,99.90
2018-10-09T05:16:04.835Z,99.90
2018-10-09T05:18:33.370Z,99.90
2018-10-09T05:21:03.654Z,99.90
2018-10-09T05:23:32.150Z,99.90
2018-10-09T05:26:00.785Z,99.90
2018-10-09T05:28:29.295Z,99.90
2018-10-09T05:30:57.871Z,99.90
2018-10-09T05:33:26.355Z,99.90
2018-10-09T05:35:55.023Z,99.90
2018-10-09T05:38:23.512Z,99.90
2018-10-09T05:40:52.080Z,99.90
2018-10-09T05:43:20.622Z,99.90
2018-10-09T05:45:49.215Z,99.90
2018-10-09T05:48:17.739Z,99.90
2018-10-09T05:50:46.286Z,99.90
2018-10-09T05:53:14.805Z,99.90
2018-10-09T05:55:43.397Z,99.90
2018-10-09T05:58:11.974Z,99.90
2018-10-09T06:00:40.456Z,99.90
2018-10-09T06:03:09.035Z,99.90
2018-10-09T06:05:37.604Z,99.90
2018-10-09T06:08:06.159Z,99.90
2018-10-09T06:10:34.694Z,99.90
2018-10-09T06:13:03.275Z,99.90
2018-10-09T06:15:31.818Z,99.90
2018-10-09T06:18:00.378Z,99.90
2018-10-09T06:20:28.914Z,99.90
2018-10-09T06:22:57.470Z,99.90
2018-10-09T06:25:25.983Z,99.90
2018-10-09T06:27:54.550Z,99.90
2018-10-09T06:30:23.068Z,99.90
2018-10-09T06:32:51.634Z,99.90
2018-10-09T06:35:20.139Z,99.90
2018-10-09T06:37:48.723Z,99.90
2018-10-09T06:40:17.436Z,99.90
2018-10-09T06:42:46.038Z,99.90
2018-10-09T06:45:14.562Z,99.90
2018-10-09T06:47:43.286Z,99.90
2018-10-09T06:50:11.743Z,99.90
2018-10-09T06:52:40.318Z,99.90
2018-10-09T06:55:08.902Z,99.90
2018-10-09T06:57:37.460Z,99.90
2018-10-09T07:00:06.145Z,99.90
2018-10-09T07:02:34.689Z,99.90
2018-10-09T07:05:03.407Z,99.90
2018-10-09T07:07:31.947Z,99.90
2018-10-09T07:10:03.090Z,99.90
2018-10-09T07:12:31.636Z,99.90
2018-10-09T07:15:00.190Z,99.90
2018-10-09T07:17:28.754Z,99.90
2018-10-09T07:19:57.325Z,99.90
2018-10-09T07:22:25.875Z,99.90
2018-10-09T07:24:54.452Z,99.90
2018-10-09T07:27:22.957Z,99.90
2018-10-09T07:29:51.747Z,99.90
2018-10-09T07:32:20.246Z,99.90
2018-10-09T07:34:48.883Z,99.90
2018-10-09T07:37:17.438Z,99.90
2018-10-09T07:42:19.775Z,99.90
2018-10-09T07:44:48.310Z,99.90
2018-10-09T07:47:16.881Z,99.90
2018-10-09T07:49:45.444Z,99.90
2018-10-09T07:52:14.001Z,99.90
2018-10-09T07:54:42.555Z,99.90
2018-10-09T07:57:11.063Z,99.90
2018-10-09T07:59:39.620Z,99.90
2018-10-09T08:02:08.163Z,99.90
2018-10-09T08:04:36.783Z,99.90
2018-10-09T08:07:05.353Z,99.90
2018-10-09T08:09:33.920Z,99.90
2018-10-09T08:12:02.438Z,99.90
2018-10-09T08:14:30.999Z,99.90
2018-10-09T08:16:59.498Z,99.90
2018-10-09T08:19:28.113Z,99.90
2018-10-09T08:21:56.733Z,99.90
2018-10-09T08:24:25.291Z,99.90
2018-10-09T08:26:53.803Z,99.90
2018-10-09T08:29:22.346Z,99.90
2018-10-09T08:31:50.906Z,99.90
2018-10-09T08:34:19.496Z,99.90
2018-10-09T08:36:48.007Z,99.90
2018-10-09T08:39:16.558Z,99.90
2018-10-09T08:41:45.098Z,99.90
2018-10-09T08:44:13.668Z,99.90
2018-10-09T08:46:42.206Z,99.90
2018-10-09T08:49:10.758Z,99.90
2018-10-09T08:51:39.282Z,99.90
2018-10-09T08:54:07.843Z,99.90
2018-10-09T08:56:36.326Z,99.90
2018-10-09T08:59:04.848Z,99.90
2018-10-09T09:01:33.422Z,99.90
2018-10-09T09:04:01.950Z,99.90
2018-10-09T09:06:30.547Z,99.90
2018-10-09T09:08:59.082Z,99.90
2018-10-09T09:11:27.643Z,99.90
2018-10-09T09:13:56.226Z,99.90
2018-10-09T09:16:24.735Z,99.90
2018-10-09T09:18:53.207Z,99.90
2018-10-09T09:21:21.922Z,99.90
2018-10-09T09:23:50.343Z,99.90
2018-10-09T09:26:18.925Z,99.50
2018-10-09T09:28:47.441Z,99.10
2018-10-09T09:31:16.056Z,99.20
2018-10-09T09:33:44.606Z,99.20
2018-10-09T09:36:13.279Z,99.30
2018-10-09T09:38:41.808Z,98.30
2018-10-09T09:41:10.404Z,98.10
2018-10-09T09:43:38.917Z,98.00
2018-10-09T09:46:07.913Z,97.50
2018-10-09T09:48:36.482Z,97.30
2018-10-09T09:51:05.050Z,97.30
2018-10-09T09:53:33.729Z,97.30
2018-10-09T09:56:03.102Z,96.80
2018-10-09T09:58:31.775Z,96.50
2018-10-09T10:01:05.554Z,96.10
2018-10-09T10:03:34.163Z,96.00
2018-10-09T10:06:02.672Z,95.60
2018-10-09T10:08:31.210Z,95.30
2018-10-09T10:10:59.776Z,95.50
2018-10-09T10:13:28.346Z,95.20
2018-10-09T10:15:56.894Z,95.10
2018-10-09T10:18:25.451Z,94.60
2018-10-09T10:20:54.044Z,94.70
2018-10-09T10:23:22.674Z,94.30
2018-10-09T10:25:51.206Z,94.20
2018-10-09T10:28:19.797Z,93.90
2018-10-09T10:30:48.343Z,94.10
2018-10-09T10:33:16.968Z,93.70
2018-10-09T10:35:45.528Z,93.50
2018-10-09T10:38:14.111Z,92.80
2018-10-09T10:40:42.672Z,92.20
2018-10-09T10:43:11.291Z,92.70
2018-10-09T10:45:39.844Z,92.60
2018-10-09T10:48:08.446Z,92.70
2018-10-09T10:50:37.040Z,92.20
2018-10-09T10:53:05.694Z,92.80
2018-10-09T10:55:34.212Z,92.30
2018-10-09T10:58:02.789Z,92.40
2018-10-09T11:00:31.364Z,92.10
2018-10-09T11:02:59.922Z,92.20
2018-10-09T11:05:28.455Z,91.50
2018-10-09T11:07:57.081Z,91.40
2018-10-09T11:10:25.515Z,91.20
2018-10-09T11:12:54.091Z,90.70
2018-10-09T11:15:22.646Z,90.80
2018-10-09T11:17:51.146Z,90.70
2018-10-09T11:20:20.112Z,90.60
2018-10-09T11:22:48.760Z,90.50
2018-10-09T11:25:17.347Z,90.50
2018-10-09T11:27:45.959Z,90.40
2018-10-09T11:30:14.655Z,90.10
2018-10-09T11:32:43.211Z,90.00
2018-10-09T11:35:11.769Z,89.40
2018-10-09T11:37:40.286Z,89.70
2018-10-09T11:42:43.070Z,87.70
2018-10-09T11:45:11.536Z,86.50
2018-10-09T11:47:40.099Z,87.90
2018-10-09T11:50:09.319Z,88.20
2018-10-09T11:52:37.898Z,87.50
2018-10-09T11:55:06.405Z,85.50
2018-10-09T11:57:35.591Z,85.80
2018-10-09T12:00:04.628Z,84.80
2018-10-09T12:02:33.156Z,83.60
2018-10-09T12:05:05.337Z,83.70
2018-10-09T12:07:33.900Z,83.60
2018-10-09T12:12:36.967Z,83.60
2018-10-09T12:15:05.679Z,83.50
2018-10-09T12:17:34.203Z,83.20
2018-10-09T12:20:03.508Z,83.10
2018-10-09T12:22:32.103Z,81.50
2018-10-09T12:25:00.636Z,82.20
2018-10-09T12:27:29.155Z,81.60
2018-10-09T12:29:57.721Z,81.40
2018-10-09T12:32:26.211Z,81.60
2018-10-09T12:34:55.247Z,82.90
2018-10-09T12:37:23.800Z,82.20
2018-10-09T12:39:52.351Z,81.80
2018-10-09T12:42:20.903Z,82.60
2018-10-09T12:44:49.431Z,83.20
2018-10-09T12:47:17.959Z,81.70
2018-10-09T12:49:46.483Z,81.30
2018-10-09T12:52:15.019Z,81.10
2018-10-09T12:54:43.567Z,80.90
2018-10-09T12:57:12.140Z,81.20
2018-10-09T12:59:40.819Z,81.40
2018-10-09T13:02:09.408Z,81.20
2018-10-09T13:04:37.943Z,80.80
2018-10-09T13:07:06.590Z,81.40
2018-10-09T13:09:35.246Z,81.90
2018-10-09T13:12:03.763Z,82.90
2018-10-09T13:14:32.291Z,82.30
2018-10-09T13:17:00.848Z,81.70
2018-10-09T13:19:29.393Z,81.90
2018-10-09T13:21:58.144Z,81.20
2018-10-09T13:24:26.536Z,81.60
2018-10-09T13:26:55.127Z,81.70
2018-10-09T13:29:23.646Z,81.50
2018-10-09T13:31:53.143Z,81.70
2018-10-09T13:34:21.736Z,81.80
2018-10-09T13:36:50.565Z,82.00
2018-10-09T13:39:19.090Z,82.00
2018-10-09T13:41:47.630Z,83.40
2018-10-09T13:44:16.231Z,83.70
2018-10-09T13:46:44.770Z,82.20
2018-10-09T13:49:13.291Z,82.60
2018-10-09T13:51:41.931Z,83.10
2018-10-09T13:54:10.506Z,82.70
2018-10-09T13:56:39.115Z,83.30
2018-10-09T13:59:07.846Z,82.40
2018-10-09T14:01:36.941Z,82.90
2018-10-09T14:04:05.476Z,83.60
2018-10-09T14:06:34.055Z,83.60
2018-10-09T14:09:03.751Z,83.70
2018-10-09T14:11:32.339Z,83.20
2018-10-09T14:14:03.199Z,82.90
2018-10-09T14:16:31.702Z,83.00
2018-10-09T14:19:00.279Z,83.30
2018-10-09T14:21:28.835Z,83.70
2018-10-09T14:23:57.430Z,84.30
2018-10-09T14:26:25.964Z,83.50
2018-10-09T14:28:54.510Z,83.50
2018-10-09T14:31:23.101Z,83.50
2018-10-09T14:33:51.689Z,83.30
2018-10-09T14:36:20.226Z,83.50
2018-10-09T14:38:48.858Z,83.60
2018-10-09T14:41:17.426Z,83.50
2018-10-09T14:43:46.030Z,83.40
2018-10-09T14:46:14.592Z,84.50
2018-10-09T14:48:43.247Z,84.10
2018-10-09T14:51:11.811Z,84.10
2018-10-09T14:53:40.891Z,84.80
2018-10-09T14:56:09.431Z,84.50
2018-10-09T14:58:38.040Z,84.90
2018-10-09T15:01:07.120Z,84.70
2018-10-09T15:03:36.065Z,84.70
2018-10-09T15:06:04.626Z,85.40
2018-10-09T15:08:33.177Z,86.10
2018-10-09T15:11:02.132Z,86.20
2018-10-09T15:13:30.652Z,86.30
2018-10-09T15:15:59.259Z,86.70
2018-10-09T15:18:27.786Z,87.10
2018-10-09T15:20:56.486Z,87.00
2018-10-09T15:23:25.063Z,86.80
2018-10-09T15:25:53.636Z,87.20
2018-10-09T15:28:22.205Z,87.30
2018-10-09T15:30:50.810Z,87.70
2018-10-09T15:33:19.328Z,87.70
2018-10-09T15:38:22.190Z,88.30
2018-10-09T15:40:50.845Z,88.30
2018-10-09T15:43:19.462Z,88.70
2018-10-09T15:45:48.076Z,89.00
2018-10-09T15:48:16.655Z,89.70
2018-10-09T15:50:45.289Z,90.00
2018-10-09T15:53:13.861Z,90.00
2018-10-09T15:55:42.477Z,90.20
2018-10-09T15:58:11.059Z,90.40
2018-10-09T16:00:41.028Z,90.60
2018-10-09T16:03:09.595Z,90.80
2018-10-09T16:05:38.236Z,90.80
2018-10-09T16:08:06.803Z,91.40
2018-10-09T16:10:35.359Z,91.70
2018-10-09T16:13:03.929Z,91.90
2018-10-09T16:15:32.483Z,91.90
2018-10-09T16:18:05.081Z,92.80
2018-10-09T16:20:33.663Z,93.20
2018-10-09T16:23:03.357Z,93.30
2018-10-09T16:25:31.903Z,93.90
2018-10-09T16:28:00.503Z,94.20
2018-10-09T16:30:29.086Z,94.60
2018-10-09T16:32:57.724Z,95.00
2018-10-09T16:35:26.306Z,95.40
2018-10-09T16:37:55.048Z,95.70
2018-10-09T16:40:23.660Z,95.90
2018-10-09T16:42:52.164Z,96.10
2018-10-09T16:45:20.697Z,96.40
2018-10-09T16:47:49.282Z,97.00
2018-10-09T16:50:17.876Z,97.20
2018-10-09T16:52:46.445Z,97.10
2018-10-09T16:55:14.963Z,97.20
2018-10-09T16:57:43.530Z,97.40
2018-10-09T17:00:12.112Z,97.40
2018-10-09T17:02:40.736Z,97.50
2018-10-09T17:05:09.395Z,97.50
2018-10-09T17:07:38.108Z,97.80
2018-10-09T17:10:06.752Z,98.10
2018-10-09T17:12:35.270Z,98.30
2018-10-09T17:15:03.885Z,98.60
2018-10-09T17:17:32.448Z,98.80
2018-10-09T17:20:07.499Z,98.60
2018-10-09T17:22:36.065Z,98.70
2018-10-09T17:25:04.974Z,98.90
2018-10-09T17:27:33.494Z,99.50
2018-10-09T17:30:04.933Z,99.50
2018-10-09T17:32:33.500Z,99.50
2018-10-09T17:35:04.540Z,99.60
2018-10-09T17:37:33.086Z,99.90
2018-10-09T17:42:36.491Z,99.90
2018-10-09T17:45:05.116Z,99.90
2018-10-09T17:47:33.615Z,99.90
2018-10-09T17:50:02.585Z,99.90
2018-10-09T17:52:31.107Z,99.90
2018-10-09T17:54:59.686Z,99.90
2018-10-09T17:57:28.221Z,99.90
2018-10-09T17:59:56.782Z,99.90
2018-10-09T18:02:25.393Z,99.90
2018-10-09T18:04:54.012Z,99.90
2018-10-09T18:07:22.575Z,99.90
2018-10-09T18:09:51.470Z,99.90
2018-10-09T18:12:20.063Z,99.90
2018-10-09T18:14:48.715Z,99.90
2018-10-09T18:17:17.199Z,99.90
2018-10-09T18:19:45.786Z,99.90
2018-10-09T18:22:14.484Z,99.90
2018-10-09T18:24:43.033Z,99.90
2018-10-09T18:27:11.623Z,99.90
2018-10-09T18:29:40.172Z,99.90
2018-10-09T18:32:08.743Z,99.90
2018-10-09T18:34:37.265Z,99.90
2018-10-09T18:37:05.973Z,99.90
2018-10-09T18:39:34.470Z,99.90
2018-10-09T18:42:03.169Z,99.90
2018-10-09T18:44:31.733Z,99.90
2018-10-09T18:47:00.458Z,99.90
2018-10-09T18:49:29.009Z,99.90
2018-10-09T18:51:57.590Z,99.90
2018-10-09T18:54:26.126Z,99.90
2018-10-09T18:56:54.768Z,99.90
2018-10-09T18:59:23.289Z,99.90
2018-10-09T19:01:51.846Z,99.90
2018-10-09T19:04:20.451Z,99.90
2018-10-09T19:06:49.020Z,99.90
2018-10-09T19:09:18.266Z,99.90
2018-10-09T19:11:46.836Z,99.90
2018-10-09T19:14:15.380Z,99.90
2018-10-09T19:16:43.928Z,99.90
2018-10-09T19:19:12.884Z,99.90
2018-10-09T19:21:41.400Z,99.90
2018-10-09T19:24:10.204Z,99.90
2018-10-09T19:26:38.791Z,99.90
2018-10-09T19:29:07.408Z,99.90
2018-10-09T19:31:36.058Z,99.90
2018-10-09T19:34:04.649Z,99.90
2018-10-09T19:36:33.369Z,99.90
2018-10-09T19:39:02.132Z,99.90
2018-10-09T19:41:30.658Z,99.90
2018-10-09T19:43:59.225Z,99.90
2018-10-09T19:46:27.766Z,99.90
2018-10-09T19:48:56.342Z,99.90
2018-10-09T19:51:25.095Z,99.90
2018-10-09T19:53:53.600Z,99.90
2018-10-09T19:56:22.809Z,99.90
2018-10-09T19:58:51.344Z,99.90
2018-10-09T20:01:20.004Z,99.90
2018-10-09T20:03:48.522Z,99.90
2018-10-09T20:06:17.190Z,99.90
2018-10-09T20:08:45.761Z,99.90
2018-10-09T20:11:14.297Z,99.90
2018-10-09T20:13:42.936Z,99.90
2018-10-09T20:16:11.556Z,99.90
2018-10-09T20:18:40.124Z,99.90
2018-10-09T20:21:09.086Z,99.90
2018-10-09T20:23:37.922Z,99.90
2018-10-09T20:26:06.659Z,99.90
2018-10-09T20:28:35.226Z,99.90
2018-10-09T20:31:03.750Z,99.90
2018-10-09T20:33:32.414Z,99.90
2018-10-09T20:36:00.938Z,99.90
2018-10-09T20:38:30.395Z,99.90
2018-10-09T20:40:58.974Z,99.90
2018-10-09T20:43:27.643Z,99.90
2018-10-09T20:45:56.266Z,99.90
2018-10-09T20:48:24.827Z,99.90
2018-10-09T20:50:53.390Z,99.90
2018-10-09T20:53:21.978Z,99.90
2018-10-09T20:55:50.604Z,99.90
2018-10-09T20:58:19.214Z,99.90
2018-10-09T21:00:47.778Z,99.90
2018-10-09T21:03:16.294Z,99.90
2018-10-09T21:05:44.936Z,99.90
2018-10-09T21:08:13.420Z,99.90
2018-10-09T21:10:42.066Z,99.90
2018-10-09T21:13:10.610Z,99.90
2018-10-09T21:15:41.301Z,99.90
2018-10-09T21:18:09.818Z,99.90
2018-10-09T21:20:38.368Z,99.90
2018-10-09T21:23:07.222Z,99.90
2018-10-09T21:25:35.868Z,99.90
2018-10-09T21:28:04.450Z,99.90
2018-10-09T21:30:33.036Z,99.90
2018-10-09T21:33:01.562Z,99.90
2018-10-09T21:35:30.168Z,99.90
2018-10-09T21:37:58.728Z,99.90
2018-10-09T21:40:27.288Z,99.90
2018-10-09T21:42:55.871Z,99.90
2018-10-09T21:45:24.580Z,99.90
2018-10-09T21:47:58.218Z,99.90
2018-10-09T21:50:27.457Z,99.90
2018-10-09T21:52:56.320Z,99.90
2018-10-09T21:55:25.239Z,99.90
2018-10-09T21:57:54.124Z,99.90
2018-10-09T22:00:22.720Z,99.90
2018-10-09T22:02:51.324Z,99.90
2018-10-09T22:05:19.885Z,99.90
2018-10-09T22:07:48.463Z,99.90
2018-10-09T22:10:16.987Z,99.90
2018-10-09T22:12:45.556Z,99.90
2018-10-09T22:15:14.105Z,99.90
2018-10-09T22:17:42.664Z,99.90
2018-10-09T22:20:11.235Z,99.90
2018-10-09T22:22:39.859Z,99.90
2018-10-09T22:25:08.403Z,99.90
2018-10-09T22:27:36.955Z,99.90
2018-10-09T22:30:05.812Z,99.90
2018-10-09T22:32:34.336Z,99.90
2018-10-09T22:35:02.919Z,99.90
2018-10-09T22:37:31.439Z,99.90
2018-10-09T22:39:59.955Z,99.90
2018-10-09T22:42:28.523Z,99.90
2018-10-09T22:44:57.047Z,99.90
2018-10-09T22:47:25.615Z,99.90
2018-10-09T22:49:54.148Z,99.90
2018-10-09T22:52:22.660Z,99.90
2018-10-09T22:54:51.227Z,99.90
2018-10-09T22:57:19.781Z,99.90
2018-10-09T22:59:48.348Z,99.90
2018-10-09T23:02:16.852Z,99.90
2018-10-09T23:04:45.417Z,99.90
2018-10-09T23:07:13.950Z,99.90
2018-10-09T23:09:42.518Z,99.90
2018-10-09T23:12:11.031Z,99.90
2018-10-09T23:14:39.646Z,99.90
2018-10-09T23:17:08.180Z,99.90
2018-10-09T23:19:36.725Z,99.90
2018-10-09T23:22:05.311Z,99.90
2018-10-09T23:24:33.907Z,99.90
2018-10-09T23:27:02.522Z,99.90
2018-10-09T23:29:31.102Z,99.90
2018-10-09T23:31:59.648Z,99.90
2018-10-09T23:34:28.236Z,99.90
2018-10-09T23:36:56.770Z,99.90
2018-10-09T23:39:25.496Z,99.90
2018-10-09T23:41:54.017Z,99.90
2018-10-09T23:44:22.540Z,99.90
2018-10-09T23:46:51.130Z,99.90
2018-10-09T23:49:19.739Z,99.90
2018-10-09T23:51:48.305Z,99.90
2018-10-09T23:54:16.850Z,99.90
2018-10-09T23:56:45.472Z,99.90
2018-10-09T23:59:14.001Z,99.90
